アムステルダム/スキポール の空港の天気 - METARとTAF

スキポール空港(アムステルダム) ( EHAM / AMS ) - オランダ アムステルダム
飛行場実況気象(Metar)
観測時間02/26 04:25 CET (02/26 03:25 UTC)
風向・風速東北東 6m/s
視程10km以上
天気現象
少しの雲 雲底高度 580m
気温-5℃
湿度79%
気圧1032hPa
METAREHAM 260325Z 06011KT 9999 FEW019 M05/M08 Q1032 NOSIG
過去の天気等 Google飛行場航空写真 Wunderground天気予報

過去48時間のMETAR

飛行場予報(TAF)
発表時間: 2/26 00:12 CET (2/25 23:12 UTC)
予報対象時間: 26日1時 CET ~ 27日7時 CET
風向・風速東北東 6m/s
視程10km以上
全天の4割程度の雲 雲底高度 460m
26日16時 CET ~ 26日19時 CET に徐々に
風向・風速北北東 3m/s
TAF EHAM 252312Z 2600/2706 06011KT 9999 SCT015
BECMG 2615/2618 03006KT